Bennett, New Mexico
Current Conditions -  °F | °C
As of 9:53 PM on Sunday 21 Dec 2014 (Local Time) from KINK Reporting Station
Clear Clear  
Wind Chill: 57°   Ceiling: Unl
Heat Index: 57°   Visibility: 10mi
Dew Point: 25°   Wind: 13mph
Humidity: 29%   Direction: 270°W
Pressure: 29.75"   Gusts: NA
Location:  32.2207°N, 103.425°W
Report Text: KINK 220453Z AUTO 27011KT 10SM CLR 14/M04 A2975 RMK AO2 SLP055 T01391039
Loading
Personal Weather Stations






























Interactive Weather Map New forecast layout! Learn more

10-Day Weather Forecast

Advertisements
Track Severe Weather on mobile